Time;durP1;ratioP1;P1;durP2;ratioP2;P2;SDS_P1;SDS_P2;PMS_P1;PMS_P2;Temp;Humidity;BMP_temperature;BMP_pressure;BME280_temperature;BME280_humidity;BME280_pressure;Samples;Min_cycle;Max_cycle;Signal;HPM_P1;HPM_P2
2021/03/12 00:00:23;;;;;;;20.57;13.07;;;;;;;1.85;47.24;95400.64;1762512;81;21590;-68
2021/03/12 00:02:53;;;;;;;23.70;11.80;;;;;;;1.85;46.78;95409.31;1761270;81;21128;-68
2021/03/12 00:05:21;;;;;;;21.83;11.87;;;;;;;1.86;46.60;95420.58;1745831;81;21543;-68
2021/03/12 00:07:49;;;;;;;24.10;12.30;;;;;;;1.86;48.16;95419.28;1745693;82;21156;-68
2021/03/12 00:10:22;;;;;;;16.20;9.53;;;;;;;1.83;46.27;95425.32;1745737;82;21144;-68
2021/03/12 00:12:50;;;;;;;25.37;12.10;;;;;;;1.79;46.84;95432.66;1746050;82;21274;-68
2021/03/12 00:15:21;;;;;;;21.20;11.70;;;;;;;1.77;45.55;95418.76;1745816;82;21109;-68
2021/03/12 00:17:50;;;;;;;17.60;9.87;;;;;;;1.81;47.18;95424.42;1745811;82;21161;-68
2021/03/12 00:20:27;;;;;;;18.97;11.53;;;;;;;1.84;46.82;95423.19;1745661;81;21156;-68
2021/03/12 00:22:54;;;;;;;22.27;11.40;;;;;;;1.79;47.46;95416.16;1744875;82;21603;-68
2021/03/12 00:25:27;;;;;;;28.70;14.03;;;;;;;1.80;46.97;95405.78;1745871;82;21275;-68
2021/03/12 00:27:54;;;;;;;27.87;14.10;;;;;;;1.80;46.71;95385.41;1716709;82;21142;-68
2021/03/12 00:30:23;;;;;;;17.10;10.77;;;;;;;1.82;47.50;95383.70;1745535;82;21574;-68
2021/03/12 00:32:51;;;;;;;20.77;12.43;;;;;;;1.77;47.02;95368.47;1745865;82;21108;-68
2021/03/12 00:35:19;;;;;;;23.03;13.33;;;;;;;1.68;47.98;95362.28;1745654;82;21168;-68
2021/03/12 00:37:46;;;;;;;17.13;8.93;;;;;;;1.71;47.75;95366.24;1745373;82;21606;-68
2021/03/12 00:40:19;;;;;;;18.77;9.63;;;;;;;1.75;46.97;95369.73;1745671;82;21155;-68
2021/03/12 00:42:47;;;;;;;25.12;11.22;;;;;;;1.67;46.97;95363.15;1746024;81;21270;-68
2021/03/12 00:45:18;;;;;;;15.97;9.03;;;;;;;1.68;46.21;95364.02;1716689;82;21149;-68
2021/03/12 00:47:47;;;;;;;15.47;8.47;;;;;;;1.64;45.72;95361.81;1716703;82;21149;-68
2021/03/12 00:50:20;;;;;;;24.33;12.87;;;;;;;1.63;46.19;95361.78;1716793;82;21165;-68
2021/03/12 00:52:48;;;;;;;21.55;11.25;;;;;;;1.58;46.18;95353.06;1744472;82;21167;-68
2021/03/12 00:55:16;;;;;;;31.00;15.63;;;;;;;1.59;48.09;95362.19;1745538;82;21132;-68
2021/03/12 00:57:45;;;;;;;31.60;15.90;;;;;;;1.59;47.88;95359.99;1745393;81;21140;-68
2021/03/12 01:00:16;;;;;;;38.40;17.27;;;;;;;1.55;48.22;95351.30;1745836;82;21286;-68
2021/03/12 01:02:44;;;;;;;32.17;16.60;;;;;;;1.56;49.24;95360.83;1716928;82;21568;-68
2021/03/12 01:05:13;;;;;;;25.97;13.47;;;;;;;1.60;49.78;95348.75;1716232;82;21203;-68
2021/03/12 01:07:41;;;;;;;31.27;16.53;;;;;;;1.65;50.52;95343.18;1745669;82;21586;-68
2021/03/12 01:10:10;;;;;;;29.30;12.90;;;;;;;1.67;50.23;95336.27;1745649;82;21140;-68
2021/03/12 01:12:38;;;;;;;26.67;13.10;;;;;;;1.67;50.50;95333.23;1745629;82;21717;-68
2021/03/12 01:15:11;;;;;;;29.90;15.17;;;;;;;1.63;50.83;95328.84;1745855;82;21286;-68
2021/03/12 01:17:39;;;;;;;29.98;14.28;;;;;;;1.57;50.90;95316.22;1716465;82;21109;-68
2021/03/12 01:20:12;;;;;;;28.73;11.40;;;;;;;1.56;50.51;95317.06;1745500;81;21145;-68
2021/03/12 01:22:42;;;;;;;30.30;14.60;;;;;;;1.60;50.50;95305.84;1745537;82;21156;-68
2021/03/12 01:25:18;;;;;;;31.50;15.97;;;;;;;1.60;50.20;95300.21;1745666;82;21302;-68
2021/03/12 01:27:47;;;;;;;30.20;15.27;;;;;;;1.57;50.76;95300.63;1745781;82;21097;-68
2021/03/12 01:30:35;;;;;;;29.80;13.37;;;;;;;1.60;50.09;95295.02;1745576;82;21148;-68
2021/03/12 01:33:06;;;;;;;26.53;14.07;;;;;;;1.66;50.34;95296.39;1743777;82;21152;-68
2021/03/12 01:35:35;;;;;;;29.03;14.50;;;;;;;1.66;50.99;95286.40;1716822;82;21462;-68
2021/03/12 01:38:05;;;;;;;22.20;12.73;;;;;;;1.70;50.75;95278.65;1716241;82;21152;-68
2021/03/12 01:40:36;;;;;;;20.27;10.00;;;;;;;1.75;51.65;95283.03;1716455;82;21611;-68
2021/03/12 01:43:05;;;;;;;22.40;12.70;;;;;;;1.62;53.84;95273.80;1745588;82;21531;-68
2021/03/12 01:45:44;;;;;;;23.90;14.00;;;;;;;1.63;52.24;95262.97;1716287;82;21169;-68
2021/03/12 01:48:16;;;;;;;22.03;11.03;;;;;;;1.68;51.20;95258.25;1745531;82;21125;-68
2021/03/12 01:50:55;;;;;;;22.33;11.13;;;;;;;1.70;50.62;95251.34;1746136;81;21762;-68
2021/03/12 01:53:25;;;;;;;19.13;10.57;;;;;;;1.70;51.82;95240.07;1745381;82;21188;-68
2021/03/12 01:55:56;;;;;;;16.70;8.57;;;;;;;1.71;50.94;95236.20;1745506;82;21551;-68
2021/03/12 01:58:25;;;;;;;17.23;9.87;;;;;;;1.71;50.61;95243.10;1716781;82;21152;-68
2021/03/12 02:00:55;;;;;;;21.30;12.47;;;;;;;1.68;51.01;95238.74;1745386;82;21141;-68
2021/03/12 02:03:31;;;;;;;24.65;14.35;;;;;;;1.65;52.90;95233.95;1745483;81;21160;-68
2021/03/12 02:06:04;;;;;;;34.30;14.77;;;;;;;1.63;54.47;95244.33;1758415;81;21147;-68
2021/03/12 02:08:34;;;;;;;20.50;10.67;;;;;;;1.64;52.82;95243.92;1736716;81;21152;-68
2021/03/12 02:11:10;;;;;;;19.50;8.70;;;;;;;1.67;52.46;95236.14;1751637;81;21155;-68
2021/03/12 02:13:54;;;;;;;27.97;14.27;;;;;;;1.65;53.25;95246.52;1762673;81;21575;-68
2021/03/12 02:16:42;;;;;;;54.93;23.73;;;;;;;1.57;53.30;95239.08;1762581;81;21548;-68
2021/03/12 02:19:46;;;;;;;63.87;25.30;;;;;;;1.51;53.68;95236.39;1762589;81;21547;-68
2021/03/12 02:22:18;;;;;;;46.60;22.45;;;;;;;1.50;53.49;95236.83;1762870;81;21118;-68
2021/03/12 02:25:06;;;;;;;47.40;23.47;;;;;;;1.55;53.28;95233.42;1762584;81;21168;-68
2021/03/12 02:27:41;;;;;;;39.60;19.48;;;;;;;1.63;52.68;95226.56;1727295;81;21144;-68
2021/03/12 02:30:11;;;;;;;26.63;14.03;;;;;;;1.60;53.17;95229.13;1762620;81;21578;-68
2021/03/12 02:32:47;;;;;;;28.23;14.40;;;;;;;1.62;53.77;95236.53;1762265;81;21159;-68
2021/03/12 02:35:21;;;;;;;30.70;15.77;;;;;;;1.55;54.14;95238.63;1762146;81;21136;-68
2021/03/12 02:37:53;;;;;;;28.70;15.10;;;;;;;1.62;53.07;95235.23;1762345;81;21124;-68
2021/03/12 02:40:23;;;;;;;20.97;11.83;;;;;;;1.68;53.34;95261.28;1736911;81;21096;-68
2021/03/12 02:42:53;;;;;;;31.20;15.23;;;;;;;1.64;54.92;95264.73;1761462;81;21132;-68
2021/03/12 02:45:22;;;;;;;25.60;14.50;;;;;;;1.56;55.95;95263.31;1762558;81;21163;-68
2021/03/12 02:47:52;;;;;;;32.40;16.67;;;;;;;1.55;56.51;95264.19;1761244;81;21151;-68
2021/03/12 02:50:23;;;;;;;23.37;13.47;;;;;;;1.53;56.10;95262.42;1762715;81;21097;-68
2021/03/12 02:52:53;;;;;;;25.30;13.30;;;;;;;1.41;57.70;95260.15;1762818;81;21136;-68
2021/03/12 02:55:23;;;;;;;26.43;12.53;;;;;;;1.41;57.61;95259.25;1762598;81;21139;-68
2021/03/12 02:57:52;;;;;;;16.53;10.40;;;;;;;1.40;62.48;95258.82;1762197;81;21135;-68
2021/03/12 03:00:22;;;;;;;23.10;12.23;;;;;;;1.40;60.67;95262.28;1762587;81;21573;-68
2021/03/12 03:02:52;;;;;;;16.90;9.17;;;;;;;1.42;62.93;95274.88;1753243;81;21159;-68
2021/03/12 03:05:26;;;;;;;43.25;23.07;;;;;;;1.33;67.26;95269.56;1755980;81;21215;-68
2021/03/12 03:07:56;;;;;;;35.17;17.43;;;;;;;1.28;64.95;95271.23;1763080;81;21147;-68
2021/03/12 03:10:26;;;;;;;33.73;17.37;;;;;;;1.00;65.85;95281.29;1762475;81;21578;-68
2021/03/12 03:12:55;;;;;;;41.57;18.87;;;;;;;0.97;65.18;95276.06;1762413;81;21136;-68
2021/03/12 03:15:25;;;;;;;36.50;18.03;;;;;;;0.97;65.37;95289.05;1762800;81;21135;-68
2021/03/12 03:17:55;;;;;;;16.20;8.63;;;;;;;1.03;64.91;95280.05;1762455;81;21112;-68
2021/03/12 03:20:27;;;;;;;24.27;11.30;;;;;;;1.05;65.27;95279.62;1762089;81;21165;-68
2021/03/12 03:22:56;;;;;;;25.07;13.87;;;;;;;1.09;65.83;95285.75;1762716;81;21100;-68
2021/03/12 03:25:25;;;;;;;21.60;13.33;;;;;;;1.16;66.81;95294.47;1762541;81;21523;-68
2021/03/12 03:27:54;;;;;;;22.63;12.27;;;;;;;1.16;66.61;95299.27;1762453;81;21144;-68
2021/03/12 03:30:24;;;;;;;23.40;11.77;;;;;;;1.22;65.67;95308.86;1737268;81;21145;-69
2021/03/12 03:32:55;;;;;;;22.50;13.23;;;;;;;1.21;65.57;95311.90;1761072;81;21152;-68
2021/03/12 03:35:24;;;;;;;17.87;8.97;;;;;;;1.28;65.71;95314.98;1736901;81;21152;-68
2021/03/12 03:37:52;;;;;;;15.07;7.13;;;;;;;1.33;65.41;95319.38;1762657;81;21569;-68
2021/03/12 03:40:21;;;;;;;14.67;7.50;;;;;;;1.29;66.01;95323.25;1736244;81;21100;-68
2021/03/12 03:42:51;;;;;;;22.30;12.50;;;;;;;1.22;66.10;95314.92;1762732;81;21116;-68
2021/03/12 03:45:20;;;;;;;18.60;10.17;;;;;;;1.18;67.95;95310.97;1762438;81;21147;-68
2021/03/12 03:47:54;;;;;;;19.43;11.33;;;;;;;1.19;67.42;95308.40;1761661;81;21570;-68
2021/03/12 03:50:22;;;;;;;17.03;9.20;;;;;;;1.15;67.99;95311.80;1737035;81;21578;-68
2021/03/12 03:52:51;;;;;;;22.30;11.60;;;;;;;1.15;68.05;95319.59;1737125;81;21123;-68
2021/03/12 03:55:26;;;;;;;20.90;11.77;;;;;;;1.18;68.60;95311.83;1762370;81;21139;-68
2021/03/12 03:57:59;;;;;;;14.60;7.80;;;;;;;1.21;69.31;95313.20;1762723;81;21121;-68
2021/03/12 04:00:29;;;;;;;16.87;9.00;;;;;;;1.21;69.40;95317.09;1762588;81;21136;-68
2021/03/12 04:02:59;;;;;;;21.77;11.50;;;;;;;1.19;68.55;95317.93;1762150;81;21139;-68
2021/03/12 04:05:28;;;;;;;19.57;10.47;;;;;;;1.22;70.08;95308.43;1751228;81;21614;-68
2021/03/12 04:08:00;;;;;;;21.10;12.50;;;;;;;1.23;69.71;95315.36;1745633;81;21140;-68
2021/03/12 04:10:29;;;;;;;22.97;12.83;;;;;;;1.15;70.41;95318.30;1745630;82;21578;-68
2021/03/12 04:12:57;;;;;;;197.87;96.30;;;;;;;1.05;70.60;95319.89;1745791;82;21563;-68
2021/03/12 04:15:26;;;;;;;31.03;18.00;;;;;;;0.93;70.68;95321.02;1745731;82;21163;-68
2021/03/12 04:17:56;;;;;;;89.57;59.17;;;;;;;0.86;70.45;95316.19;1745676;82;21701;-68
2021/03/12 04:20:25;;;;;;;60.60;40.03;;;;;;;0.75;69.45;95307.35;1745894;82;21121;-68
2021/03/12 04:22:54;;;;;;;38.43;21.03;;;;;;;0.59;70.83;95316.65;1745639;82;21590;-68
2021/03/12 04:25:25;;;;;;;28.57;17.37;;;;;;;0.59;71.11;95311.45;1745636;82;21551;-68
2021/03/12 04:27:54;;;;;;;30.03;17.50;;;;;;;0.59;70.92;95315.34;1745643;81;21148;-68
2021/03/12 04:30:23;;;;;;;32.93;16.77;;;;;;;0.58;70.88;95319.20;1745508;82;21595;-68
2021/03/12 04:32:52;;;;;;;43.97;27.47;;;;;;;0.54;71.66;95320.03;1716560;82;21606;-68
2021/03/12 04:35:21;;;;;;;28.60;18.43;;;;;;;0.55;70.92;95308.35;1745600;81;21630;-68
2021/03/12 04:37:51;;;;;;;24.70;14.87;;;;;;;0.56;71.10;95319.64;1745880;82;21151;-67
2021/03/12 04:40:20;;;;;;;65.33;38.83;;;;;;;0.55;70.76;95317.88;1745490;82;21144;-69
2021/03/12 04:42:50;;;;;;;43.00;26.80;;;;;;;0.59;70.21;95314.05;1745627;82;21571;-68
2021/03/12 04:45:19;;;;;;;79.07;41.90;;;;;;;0.62;69.78;95316.69;1745599;82;21136;-68
2021/03/12 04:47:49;;;;;;;31.83;18.43;;;;;;;0.57;70.27;95320.94;1745721;82;21725;-68
2021/03/12 04:50:17;;;;;;;45.77;27.67;;;;;;;0.52;70.27;95324.32;1745503;82;21160;-68
2021/03/12 04:52:45;;;;;;;46.93;27.67;;;;;;;0.46;70.37;95324.23;1745868;82;21282;-68
2021/03/12 04:55:16;;;;;;;53.60;31.23;;;;;;;0.45;71.22;95314.69;1745511;82;21539;-68
2021/03/12 04:57:46;;;;;;;29.67;15.13;;;;;;;0.50;70.92;95327.31;1745813;81;21281;-68
2021/03/12 05:00:17;;;;;;;33.97;18.13;;;;;;;0.55;70.72;95325.23;1745776;82;21143;-68
2021/03/12 05:02:50;;;;;;;117.63;39.97;;;;;;;0.50;71.24;95315.20;1744877;82;21286;-68
2021/03/12 05:05:20;;;;;;;34.50;19.13;;;;;;;0.52;70.90;95320.00;1745597;81;21148;-68
2021/03/12 05:07:48;;;;;;;37.17;19.93;;;;;;;0.57;70.54;95324.83;1716491;82;21144;-68
2021/03/12 05:10:37;;;;;;;50.13;22.30;;;;;;;0.54;70.95;95327.82;1745111;82;21129;-68
2021/03/12 05:13:07;;;;;;;41.07;22.40;;;;;;;0.58;71.14;95332.19;1745863;82;21125;-68
2021/03/12 05:15:36;;;;;;;36.50;20.90;;;;;;;0.62;70.92;95324.91;1745564;82;21140;-68
2021/03/12 05:18:04;;;;;;;32.00;20.47;;;;;;;0.67;70.67;95324.98;1745576;82;21590;-68
2021/03/12 05:20:32;;;;;;;32.77;19.23;;;;;;;0.68;70.50;95324.12;1745855;82;21275;-68
2021/03/12 05:23:00;;;;;;;34.50;18.07;;;;;;;0.66;71.08;95314.16;1745549;82;21147;-68
2021/03/12 05:25:28;;;;;;;28.67;15.70;;;;;;;0.67;70.71;95325.85;1745926;82;21136;-68
2021/03/12 05:27:56;;;;;;;34.57;21.13;;;;;;;0.57;71.92;95318.77;1745873;82;21290;-68
2021/03/12 05:30:26;;;;;;;26.97;16.07;;;;;;;0.56;71.56;95319.20;1716767;82;21153;-68
2021/03/12 05:32:56;;;;;;;34.07;21.50;;;;;;;0.54;72.54;95317.44;1745625;81;21146;-68
2021/03/12 05:35:24;;;;;;;31.17;18.90;;;;;;;0.54;72.42;95313.11;1745572;82;21176;-68
2021/03/12 05:37:52;;;;;;;33.37;18.90;;;;;;;0.62;71.68;95315.82;1745629;82;21594;-68
2021/03/12 05:40:22;;;;;;;38.53;22.30;;;;;;;0.62;71.98;95314.52;1745399;82;21136;-68
2021/03/12 05:42:55;;;;;;;40.17;23.63;;;;;;;0.55;72.96;95311.38;1745832;82;21160;-68
2021/03/12 05:45:23;;;;;;;43.33;25.00;;;;;;;0.53;73.57;95303.59;1745709;82;21160;-68
2021/03/12 05:47:55;;;;;;;34.20;22.13;;;;;;;0.53;73.43;95293.61;1744451;82;21286;-68
2021/03/12 05:50:23;;;;;;;35.23;21.63;;;;;;;0.55;73.11;95290.18;1746037;82;21275;-69
2021/03/12 05:52:51;;;;;;;44.10;24.83;;;;;;;0.56;73.39;95291.08;1745680;82;21151;-70
2021/03/12 05:55:20;;;;;;;39.27;24.10;;;;;;;0.60;73.03;95276.84;1745741;82;21286;-66
2021/03/12 05:57:48;;;;;;;33.80;20.27;;;;;;;0.66;73.07;95267.42;1716598;82;21164;-65
2021/03/12 06:00:18;;;;;;;48.90;21.17;;;;;;;0.69;73.76;95262.27;1746077;82;21285;-71
2021/03/12 06:02:49;;;;;;;;;;;;;;;0.62;73.12;95265.20;1748114;81;21607;-69
2021/03/12 06:05:23;;;;;;;43.23;19.23;;;;;;;0.53;74.24;95256.86;1750397;81;20399;-68
2021/03/12 06:07:50;;;;;;;112.07;42.20;;;;;;;0.59;73.21;95248.28;1762642;81;21144;-72
2021/03/12 06:10:19;;;;;;;79.10;34.10;;;;;;;0.59;72.99;95237.89;1762421;81;21175;-73
2021/03/12 06:12:54;;;;;;;50.47;24.53;;;;;;;0.68;74.50;95229.34;1762713;81;21159;-70
2021/03/12 06:15:34;;;;;;;41.03;23.27;;;;;;;0.84;75.15;95227.41;1762564;81;21562;-68
2021/03/12 06:18:27;;;;;;;50.75;28.77;;;;;;;1.03;74.83;95210.31;1762734;81;21139;-72
2021/03/12 06:21:28;;;;;;;423.53;230.90;;;;;;;1.12;74.64;95203.06;1762342;81;21152;-68
2021/03/12 06:23:57;;;;;;;99.60;53.90;;;;;;;1.20;74.43;95186.69;1760138;81;21151;-67
2021/03/12 06:26:44;;;;;;;42.27;20.37;;;;;;;1.33;73.98;95192.02;1760430;81;21143;-70
2021/03/12 06:29:13;;;;;;;33.57;19.57;;;;;;;1.33;73.40;95198.09;1758888;81;21159;-66
2021/03/12 06:32:02;;;;;;;29.50;16.40;;;;;;;1.32;73.69;95205.45;1762791;81;21092;-68
2021/03/12 06:34:33;;;;;;;49.00;29.80;;;;;;;1.36;73.85;95198.14;1753397;81;21156;-68
2021/03/12 06:37:30;;;;;;;29.80;16.17;;;;;;;1.30;74.75;95201.52;1758732;81;21152;-66
2021/03/12 06:39:59;;;;;;;19.07;10.33;;;;;;;1.39;73.83;95206.40;1753067;81;21570;-69
2021/03/12 06:42:29;;;;;;;26.10;13.47;;;;;;;1.46;74.39;95196.48;1760979;81;21570;-71
2021/03/12 06:45:01;;;;;;;20.27;11.13;;;;;;;1.58;73.99;95184.03;1762567;81;21180;-70
2021/03/12 06:47:29;;;;;;;28.40;17.27;;;;;;;1.62;73.92;95185.39;1737094;81;21566;-69
2021/03/12 06:49:59;;;;;;;23.97;14.20;;;;;;;1.68;73.40;95180.23;1759627;81;21394;-70
2021/03/12 06:52:34;;;;;;;15.60;9.53;;;;;;;1.84;73.46;95182.55;1761370;81;21144;-73
2021/03/12 06:55:06;;;;;;;40.47;23.57;;;;;;;1.99;74.68;95169.20;1762676;81;21148;-70
2021/03/12 06:57:42;;;;;;;32.97;17.83;;;;;;;2.13;73.94;95177.98;1761107;81;21136;-72
2021/03/12 07:00:26;;;;;;;30.10;17.40;;;;;;;2.11;75.63;95173.20;1762574;81;21125;-68
2021/03/12 07:02:54;;;;;;;37.23;20.27;;;;;;;2.11;74.52;95181.87;1761119;81;21144;-68
2021/03/12 07:05:24;;;;;;;36.67;22.40;;;;;;;2.10;74.29;95184.48;1756781;81;21129;-71
2021/03/12 07:07:54;;;;;;;15.63;8.83;;;;;;;2.03;74.95;95184.85;1745320;82;21311;-68
2021/03/12 07:10:40;;;;;;;28.43;16.53;;;;;;;2.07;75.73;95172.75;1745491;81;21093;-68
2021/03/12 07:13:16;;;;;;;20.43;12.43;;;;;;;2.39;75.98;95189.87;1744170;82;21606;-71
2021/03/12 07:15:46;;;;;;;7.70;5.47;;;;;;;2.63;76.36;95173.52;1745862;82;21728;-69
2021/03/12 07:18:20;;;;;;;;;;;;;;;2.93;76.17;95181.91;1747549;82;21701;-72
2021/03/12 07:20:51;;;;;;;3.40;2.80;;;;;;;3.23;76.20;95175.08;1745702;82;20123;-67
2021/03/12 07:23:21;;;;;;;4.47;3.37;;;;;;;3.47;75.24;95197.28;1745607;82;21148;-77
2021/03/12 07:25:51;;;;;;;54.23;31.07;;;;;;;3.67;74.87;95176.89;1745445;82;21133;-80
2021/03/12 07:28:24;;;;;;;2.77;1.80;;;;;;;3.80;74.04;95186.46;1745767;82;21120;-68
2021/03/12 07:31:14;;;;;;;3.37;2.37;;;;;;;3.91;73.56;95193.02;1745974;81;21586;-70
2021/03/12 07:33:52;;;;;;;2.50;1.77;;;;;;;3.96;72.74;95189.11;1745666;82;21149;-72
2021/03/12 07:36:27;;;;;;;4.07;2.80;;;;;;;3.96;72.03;95208.69;1716633;82;21097;-69
2021/03/12 07:38:58;;;;;;;14.17;9.70;;;;;;;4.00;72.18;95185.61;1744774;82;21302;-69
2021/03/12 07:41:27;;;;;;;4.10;2.70;;;;;;;3.98;72.92;95203.91;1745755;82;21684;-68
2021/03/12 07:44:19;;;;;;;4.27;3.03;;;;;;;3.99;71.70;95199.55;1745631;82;21156;-68
2021/03/12 07:46:52;;;;;;;2.83;1.77;;;;;;;3.96;72.97;95198.25;1744140;82;21120;-69
2021/03/12 07:49:31;;;;;;;16.90;11.40;;;;;;;3.98;71.12;95201.70;1745755;81;21259;-67
2021/03/12 07:52:09;;;;;;;14.13;12.68;;;;;;;4.08;72.24;95191.70;1833114;76;27959;-67
2021/03/12 07:54:44;;;;;;;11.97;7.70;;;;;;;4.21;71.41;95197.78;1860761;77;21141;-69
2021/03/12 07:57:18;;;;;;;5.53;2.53;;;;;;;4.26;71.91;95197.38;1859185;77;21654;-65
2021/03/12 07:59:55;;;;;;;3.90;2.80;;;;;;;4.32;71.61;95192.14;1856896;77;21132;-68
2021/03/12 08:03:01;;;;;;;6.20;5.40;;;;;;;4.52;71.51;95201.25;1859661;77;21132;-71
2021/03/12 08:05:48;;;;;;;4.17;3.20;;;;;;;4.63;70.74;95199.92;1772347;79;21162;-76
2021/03/12 08:08:37;;;;;;;4.40;3.33;;;;;;;4.77;71.17;95189.88;1790795;79;21115;-66
2021/03/12 08:11:32;;;;;;;2.47;2.20;;;;;;;4.92;71.39;95206.39;1788337;80;21550;-68
2021/03/12 08:14:16;;;;;;;2.33;1.70;;;;;;;4.98;68.33;95203.75;1787649;80;21133;-71
2021/03/12 08:17:04;;;;;;;2.43;2.03;;;;;;;5.02;67.52;95200.26;1797854;78;21113;-65
2021/03/12 08:19:48;;;;;;;1.97;1.10;;;;;;;5.19;68.48;95180.14;1850692;77;22902;-66
2021/03/12 08:22:33;;;;;;;1.63;1.43;;;;;;;5.22;68.00;95179.26;1826538;78;21291;-70
2021/03/12 08:25:06;;;;;;;1.50;1.40;;;;;;;5.27;66.32;95208.88;1827408;78;21142;-67
2021/03/12 08:27:45;;;;;;;2.90;2.63;;;;;;;5.29;65.40;95198.39;1826335;78;21133;-69
2021/03/12 08:30:27;;;;;;;2.63;2.30;;;;;;;5.41;65.56;95193.10;1828205;78;21699;-69
2021/03/12 08:32:58;;;;;;;0.83;0.80;;;;;;;5.51;65.86;95183.46;1827933;78;21790;-82
2021/03/12 08:35:42;;;;;;;1.37;1.20;;;;;;;5.52;64.62;95166.45;1725530;82;21162;-69
2021/03/12 08:38:35;;;;;;;4.73;4.10;;;;;;;5.51;65.57;95183.46;1795793;80;21143;-73
2021/03/12 08:41:23;;;;;;;3.33;3.03;;;;;;;5.49;66.74;95170.38;1795812;80;21129;-75
2021/03/12 08:44:10;;;;;;;2.53;2.33;;;;;;;5.57;66.40;95179.08;1731588;80;21157;-69
2021/03/12 08:46:40;;;;;;;2.20;1.80;;;;;;;5.64;66.17;95181.19;1733914;81;21169;-70
2021/03/12 08:49:10;;;;;;;24.73;18.97;;;;;;;5.71;68.70;95176.35;1770229;81;21805;-71
2021/03/12 08:51:39;;;;;;;3.93;3.33;;;;;;;5.77;68.63;95178.95;1742056;81;21144;-69
2021/03/12 08:54:10;;;;;;;14.03;10.73;;;;;;;5.92;68.16;95170.53;1767937;81;21156;-66
2021/03/12 08:56:40;;;;;;;20.00;15.40;;;;;;;6.09;66.81;95179.61;1769770;81;21148;-65
2021/03/12 08:59:09;;;;;;;1.67;1.57;;;;;;;6.27;66.18;95195.17;1770493;81;21717;-67
2021/03/12 09:01:39;;;;;;;0.90;0.90;;;;;;;6.47;64.55;95182.76;1767052;81;21219;-65
2021/03/12 09:04:20;;;;;;;18.43;1.67;;;;;;;6.75;64.48;95186.42;1769776;81;21141;-67
2021/03/12 09:07:03;;;;;;;2.77;1.40;;;;;;;7.05;62.98;95193.53;1819853;77;22844;-68
2021/03/12 09:09:38;;;;;;;3.17;1.70;;;;;;;7.04;61.77;95190.50;1794791;80;21124;-69
2021/03/12 09:12:11;;;;;;;2.40;1.37;;;;;;;7.04;62.13;95190.05;1781577;78;21129;-69
2021/03/12 09:14:43;;;;;;;4.03;2.30;;;;;;;7.09;63.36;95175.13;1809834;78;21255;-68
2021/03/12 09:17:11;;;;;;;1.23;1.00;;;;;;;7.11;62.49;95190.86;1799080;78;21259;-70
2021/03/12 09:19:41;;;;;;;3.40;2.90;;;;;;;7.17;62.76;95182.04;1799307;79;21260;-69
2021/03/12 09:22:11;;;;;;;2.17;1.83;;;;;;;7.21;63.50;95189.00;1801342;78;21278;-68
2021/03/12 09:24:53;;;;;;;3.40;2.40;;;;;;;7.30;63.43;95172.67;1742745;82;21168;-66
2021/03/12 09:27:23;;;;;;;5.77;4.20;;;;;;;7.57;63.14;95187.65;1769298;81;21160;-63
2021/03/12 09:29:53;;;;;;;6.03;5.03;;;;;;;7.55;63.91;95175.84;1742403;82;21156;-69
2021/03/12 09:32:23;;;;;;;5.50;4.90;;;;;;;7.61;62.35;95208.16;1771694;81;21160;-68
2021/03/12 09:34:54;;;;;;;6.30;4.90;;;;;;;7.57;62.47;95187.65;1743082;82;21168;-69
2021/03/12 09:37:43;;;;;;;3.73;3.20;;;;;;;7.59;63.20;95174.06;1771928;81;21184;-77
2021/03/12 09:40:40;;;;;;;7.17;5.67;;;;;;;7.58;63.48;95184.13;1727395;82;21145;-64
2021/03/12 09:43:22;;;;;;;7.87;4.40;;;;;;;7.44;61.83;95207.08;1771749;81;21603;-67
2021/03/12 09:46:02;;;;;;;6.07;4.33;;;;;;;7.22;62.53;95174.98;1742652;82;21251;-67
2021/03/12 09:48:33;;;;;;;8.33;6.60;;;;;;;7.42;63.40;95169.03;1769837;81;21208;-67
2021/03/12 09:51:04;;;;;;;9.13;6.90;;;;;;;7.63;63.00;95161.30;1742645;82;21195;-66
2021/03/12 09:53:33;;;;;;;7.10;5.47;;;;;;;7.86;61.87;95179.80;1771893;79;21133;-67
2021/03/12 09:56:14;;;;;;;5.77;4.13;;;;;;;8.10;61.27;95175.48;1782229;79;21178;-66
2021/03/12 09:58:44;;;;;;;10.43;7.10;;;;;;;8.00;60.17;95159.45;1778711;81;21142;-64
2021/03/12 10:01:18;;;;;;;;;;;;;;;8.00;61.45;95156.37;1778307;81;21119;-72
2021/03/12 10:03:48;;;;;;;8.23;5.37;;;;;;;8.08;60.17;95164.13;1779403;81;20394;-64
2021/03/12 10:06:18;;;;;;;7.20;4.40;;;;;;;8.03;60.29;95157.62;1764370;81;21157;-65
2021/03/12 10:09:07;;;;;;;7.87;5.67;;;;;;;8.08;59.72;95173.77;1773152;81;21134;-64
2021/03/12 10:11:44;;;;;;;7.33;5.87;;;;;;;8.30;60.04;95170.36;1738526;81;21142;-64
2021/03/12 10:14:34;;;;;;;5.73;4.87;;;;;;;8.59;58.92;95183.03;1773850;81;21153;-64
2021/03/12 10:17:20;;;;;;;8.87;6.83;;;;;;;8.60;58.50;95161.98;1773306;81;21576;-65
2021/03/12 10:19:58;;;;;;;10.03;7.60;;;;;;;8.63;58.84;95172.44;1773306;81;21269;-64
2021/03/12 10:22:42;;;;;;;5.60;3.63;;;;;;;8.68;58.76;95163.16;1773427;81;21695;-65
2021/03/12 10:25:36;;;;;;;10.90;7.55;;;;;;;8.78;57.67;95167.34;1773443;81;21189;-64
2021/03/12 10:28:16;;;;;;;9.47;6.90;;;;;;;8.95;58.57;95185.91;1773263;81;21560;-64
2021/03/12 10:30:50;;;;;;;14.63;7.20;;;;;;;8.90;57.83;95200.92;1773624;81;21253;-64
2021/03/12 10:33:21;;;;;;;12.33;9.57;;;;;;;8.87;57.83;95180.34;1772481;81;21277;-64
2021/03/12 10:35:59;;;;;;;7.43;5.67;;;;;;;8.95;57.95;95185.45;1745490;81;21138;-64
2021/03/12 10:38:33;;;;;;;7.47;4.67;;;;;;;8.99;56.98;95191.52;1773723;81;21138;-64
2021/03/12 10:41:25;;;;;;;6.97;4.30;;;;;;;9.04;56.75;95176.51;1773110;81;21133;-64
2021/03/12 10:44:04;;;;;;;5.03;3.90;;;;;;;9.10;56.02;95188.25;1773323;81;21260;-64
2021/03/12 10:46:31;;;;;;;9.00;6.47;;;;;;;9.01;56.23;95189.28;1773253;81;21118;-64
2021/03/12 10:49:02;;;;;;;11.57;8.60;;;;;;;9.02;56.05;95178.30;1773205;81;21320;-64
2021/03/12 10:51:40;;;;;;;7.83;5.40;;;;;;;9.14;56.22;95193.00;1773592;81;21289;-64
2021/03/12 10:54:13;;;;;;;7.33;5.90;;;;;;;9.15;55.40;95187.71;1773366;81;21142;-64
2021/03/12 10:56:47;;;;;;;5.70;4.00;;;;;;;9.33;55.06;95202.27;1773157;81;21436;-64
2021/03/12 10:59:17;;;;;;;5.67;4.60;;;;;;;9.54;54.37;95180.75;1773340;81;21133;-64
2021/03/12 11:01:48;;;;;;;9.57;6.50;;;;;;;9.78;53.55;95196.95;1773176;81;21296;-64
2021/03/12 11:04:18;;;;;;;8.37;6.37;;;;;;;9.80;52.91;95179.77;1773589;81;21134;-64
2021/03/12 11:06:46;;;;;;;6.27;3.70;;;;;;;10.36;52.26;95207.50;1772248;81;21169;-64
2021/03/12 11:09:14;;;;;;;7.03;5.73;;;;;;;10.39;52.07;95197.33;1743675;82;21131;-64
2021/03/12 11:11:44;;;;;;;6.47;5.13;;;;;;;10.59;50.20;95200.34;1774051;81;21231;-64
2021/03/12 11:14:12;;;;;;;7.40;5.23;;;;;;;10.75;50.45;95204.77;1774385;81;21119;-64
2021/03/12 11:16:40;;;;;;;5.00;4.30;;;;;;;10.44;50.40;95206.45;1774406;81;21147;-64
2021/03/12 11:19:11;;;;;;;6.07;4.10;;;;;;;10.10;51.64;95216.42;1774551;81;21100;-65
2021/03/12 11:21:41;;;;;;;6.77;5.13;;;;;;;9.47;53.34;95226.99;1774359;81;21120;-64
2021/03/12 11:24:10;;;;;;;6.73;5.60;;;;;;;9.10;53.78;95248.78;1774235;81;21148;-64
2021/03/12 11:26:42;;;;;;;7.77;6.27;;;;;;;8.52;56.02;95256.37;1774170;81;21587;-64
2021/03/12 11:29:10;;;;;;;7.73;3.90;;;;;;;8.30;56.88;95271.11;1774074;81;21119;-64
2021/03/12 11:31:40;;;;;;;5.87;4.80;;;;;;;8.08;58.41;95267.92;1774136;81;21139;-64
2021/03/12 11:34:08;;;;;;;7.73;6.97;;;;;;;8.03;58.47;95275.00;1774411;81;21131;-64
2021/03/12 11:36:36;;;;;;;7.20;4.97;;;;;;;7.73;59.11;95285.46;1774107;81;21561;-64
2021/03/12 11:39:04;;;;;;;4.60;3.40;;;;;;;7.62;59.46;95304.44;1774388;81;21542;-64
2021/03/12 11:41:32;;;;;;;6.33;4.67;;;;;;;7.42;60.31;95296.78;1774102;81;21143;-64
2021/03/12 11:44:00;;;;;;;9.73;5.87;;;;;;;7.23;61.16;95300.03;1774115;81;21151;-64
2021/03/12 11:46:28;;;;;;;7.87;5.60;;;;;;;7.17;60.99;95304.05;1774437;81;21143;-64
2021/03/12 11:48:56;;;;;;;9.10;7.10;;;;;;;7.14;61.43;95297.08;1774082;81;21136;-64
2021/03/12 11:51:24;;;;;;;6.20;4.60;;;;;;;7.24;61.09;95294.78;1774113;81;21585;-64
2021/03/12 11:53:53;;;;;;;8.67;7.27;;;;;;;7.47;61.66;95289.27;1773451;81;21164;-64
2021/03/12 11:56:21;;;;;;;6.43;4.97;;;;;;;7.91;59.69;95278.69;1774119;81;21167;-64
2021/03/12 11:58:50;;;;;;;5.80;4.13;;;;;;;8.68;57.28;95260.47;1774088;81;21151;-64